Terminal Aerodrome Forecast
Issued by NWS

Home | Current Version | Previous Version | Text Only | Print | Product List | Glossary On
Versions: 1 2 3 4 5 6 7 8 9 10 11 12 13 14 15
520
FTUS43 KAPX 250536
TAFAPN
TAF
KAPN 250536Z 2506/2606 30005KT P6SM -RA OVC050
     FM251000 34010KT P6SM OVC025
     FM251200 36010KT P6SM OVC010
     FM251300 36010G16KT P6SM OVC020
     FM251700 34010G16KT P6SM BKN035
     FM251900 34010G16KT P6SM FEW040
     FM252300 34008KT P6SM SKC=

USA.gov is the U.S. government's official web portal to all federal, state and local government web resources and services.